メインページ
METAR-TAF:

METAR-TAF

空港 :

ベイルート, レバノン

緯度: 33-49N, 経度: 035-29E, 海抜: 29m

現時点の気象観測

当レポートは1時間42分前の00:00(UTC)に作成
南/南東の風 4kt
気温 13°C
湿度 51%
気圧 1019 hPa
視程: 7000m
高度15000ftの千切れ雲あり

METAR: OLBA 210000Z 16004KT 7000 BKN150 13/03 Q1019 NOSIG

時間: 03:42 (01:42 UTC)

予報

当レポートは3時間42分前の22:00(UTC)に作成
予報は21日の 00時(UTC)から 22日の 06時(UTC)まで有効
東/南東の風 4kt
視程: 8000m
高度18000ftの千切れ雲あり
21日の 08時(UTC)から 21日の 10時(UTC)まで徐々に
南西の風 13kt
視程: 7000m
高度8000ftの千切れ雲あり
21日の 12時(UTC)から 22日の 06時(UTC)まで一時的に
南西の風 10kt、最大20ktの突風を伴う
視程: 5000m
高度2300ftの千切れ雲あり
高度2300ftの千切れ雲あり

TAF: OLBA 202200Z 2100/2206 12004KT 8000 BKN180 BECMG 2108/2110 22013KT 7000 BKN080 TEMPO 2112/2206 22010G20KT 5000 RA BKN023 2118/2121 BKN023

4,000以上の空港の気象観測と天気予報(METAR報とTAF報)

利用可能な観測所は地図上に黄色い丸と赤い丸で示す。

丸の上にカーソルを重ねると観測所名を参照できる。

次にクリックすると気象観測と天気予報を参照できる。

マップの切り替え:黒色「×」印の緑ボタンをクリックして拡大、「-」印の緑ボタンをクリックして縮小、緑色の三角印をクリックして隣りの地図に切り替え


METAR-TAF: